sensor_id;sensor_type;location;lat;lon;timestamp;P1;durP1;ratioP1;P2;durP2;ratioP2
77287;SDS011;66345;42.694;23.346;2023-04-01T00:00:16;18.57;;;8.70;;
77287;SDS011;66345;42.694;23.346;2023-04-01T00:02:41;18.08;;;8.57;;
77287;SDS011;66345;42.694;23.346;2023-04-01T00:05:07;18.30;;;8.40;;
77287;SDS011;66345;42.694;23.346;2023-04-01T00:07:35;19.95;;;8.45;;
77287;SDS011;66345;42.694;23.346;2023-04-01T00:10:01;16.30;;;8.18;;
77287;SDS011;66345;42.694;23.346;2023-04-01T00:12:27;18.52;;;8.60;;
77287;SDS011;66345;42.694;23.346;2023-04-01T00:14:53;19.92;;;8.50;;
77287;SDS011;66345;42.694;23.346;2023-04-01T00:17:18;14.17;;;7.97;;
77287;SDS011;66345;42.694;23.346;2023-04-01T00:19:43;15.23;;;8.67;;
77287;SDS011;66345;42.694;23.346;2023-04-01T00:22:09;17.63;;;8.77;;
77287;SDS011;66345;42.694;23.346;2023-04-01T00:24:36;13.85;;;7.93;;
77287;SDS011;66345;42.694;23.346;2023-04-01T00:27:03;16.25;;;8.95;;
77287;SDS011;66345;42.694;23.346;2023-04-01T00:29:28;16.38;;;7.68;;
77287;SDS011;66345;42.694;23.346;2023-04-01T00:31:56;20.38;;;8.05;;
77287;SDS011;66345;42.694;23.346;2023-04-01T00:34:22;22.15;;;8.68;;
77287;SDS011;66345;42.694;23.346;2023-04-01T00:36:48;17.55;;;8.38;;
77287;SDS011;66345;42.694;23.346;2023-04-01T00:39:15;16.42;;;7.63;;
77287;SDS011;66345;42.694;23.346;2023-04-01T00:41:41;18.23;;;7.68;;
77287;SDS011;66345;42.694;23.346;2023-04-01T00:44:17;13.57;;;7.68;;
77287;SDS011;66345;42.694;23.346;2023-04-01T00:46:45;17.17;;;7.95;;
77287;SDS011;66345;42.694;23.346;2023-04-01T00:49:12;18.08;;;8.23;;
77287;SDS011;66345;42.694;23.346;2023-04-01T00:51:38;16.17;;;8.07;;
77287;SDS011;66345;42.694;23.346;2023-04-01T00:54:06;17.10;;;8.32;;
77287;SDS011;66345;42.694;23.346;2023-04-01T00:56:40;18.55;;;8.60;;
77287;SDS011;66345;42.694;23.346;2023-04-01T00:59:15;15.75;;;8.20;;
77287;SDS011;66345;42.694;23.346;2023-04-01T01:01:46;14.95;;;7.63;;
77287;SDS011;66345;42.694;23.346;2023-04-01T01:04:25;15.77;;;7.53;;
77287;SDS011;66345;42.694;23.346;2023-04-01T01:07:03;15.77;;;7.80;;
77287;SDS011;66345;42.694;23.346;2023-04-01T01:12:25;12.90;;;7.30;;
77287;SDS011;66345;42.694;23.346;2023-04-01T01:34:35;12.57;;;6.60;;
77287;SDS011;66345;42.694;23.346;2023-04-01T01:37:10;13.80;;;6.45;;
77287;SDS011;66345;42.694;23.346;2023-04-01T01:39:40;12.20;;;6.70;;
77287;SDS011;66345;42.694;23.346;2023-04-01T01:42:09;10.97;;;6.03;;
77287;SDS011;66345;42.694;23.346;2023-04-01T01:44:38;14.00;;;6.38;;
77287;SDS011;66345;42.694;23.346;2023-04-01T01:47:06;13.00;;;6.10;;
77287;SDS011;66345;42.694;23.346;2023-04-01T01:49:32;12.00;;;5.55;;
77287;SDS011;66345;42.694;23.346;2023-04-01T01:52:00;11.23;;;5.75;;
77287;SDS011;66345;42.694;23.346;2023-04-01T01:54:26;12.97;;;5.87;;
77287;SDS011;66345;42.694;23.346;2023-04-01T01:56:55;11.03;;;5.80;;
77287;SDS011;66345;42.694;23.346;2023-04-01T01:59:26;13.48;;;6.30;;
77287;SDS011;66345;42.694;23.346;2023-04-01T02:01:54;13.70;;;5.90;;
77287;SDS011;66345;42.694;23.346;2023-04-01T02:04:22;10.57;;;5.35;;
77287;SDS011;66345;42.694;23.346;2023-04-01T02:07:04;11.55;;;5.45;;
77287;SDS011;66345;42.694;23.346;2023-04-01T02:09:34;16.38;;;6.60;;
77287;SDS011;66345;42.694;23.346;2023-04-01T02:12:07;13.88;;;5.68;;
77287;SDS011;66345;42.694;23.346;2023-04-01T02:14:39;11.98;;;5.10;;
77287;SDS011;66345;42.694;23.346;2023-04-01T02:17:26;12.57;;;6.13;;
77287;SDS011;66345;42.694;23.346;2023-04-01T02:20:05;16.35;;;6.07;;
77287;SDS011;66345;42.694;23.346;2023-04-01T02:22:35;13.65;;;5.85;;
77287;SDS011;66345;42.694;23.346;2023-04-01T02:25:14;12.05;;;5.40;;
77287;SDS011;66345;42.694;23.346;2023-04-01T02:27:43;12.52;;;5.70;;
77287;SDS011;66345;42.694;23.346;2023-04-01T02:30:11;18.90;;;5.90;;
77287;SDS011;66345;42.694;23.346;2023-04-01T02:32:39;11.10;;;5.70;;
77287;SDS011;66345;42.694;23.346;2023-04-01T02:35:06;17.73;;;6.75;;
77287;SDS011;66345;42.694;23.346;2023-04-01T02:37:34;19.38;;;6.15;;
77287;SDS011;66345;42.694;23.346;2023-04-01T02:40:00;12.88;;;5.63;;
77287;SDS011;66345;42.694;23.346;2023-04-01T02:42:27;13.00;;;5.65;;
77287;SDS011;66345;42.694;23.346;2023-04-01T02:44:52;12.93;;;5.88;;
77287;SDS011;66345;42.694;23.346;2023-04-01T02:47:18;13.60;;;6.40;;
77287;SDS011;66345;42.694;23.346;2023-04-01T02:49:43;14.97;;;6.33;;
77287;SDS011;66345;42.694;23.346;2023-04-01T02:52:09;16.73;;;6.87;;
77287;SDS011;66345;42.694;23.346;2023-04-01T02:54:34;18.15;;;8.80;;
77287;SDS011;66345;42.694;23.346;2023-04-01T02:57:00;22.03;;;9.50;;
77287;SDS011;66345;42.694;23.346;2023-04-01T02:59:25;18.07;;;8.73;;
77287;SDS011;66345;42.694;23.346;2023-04-01T03:01:50;17.07;;;8.30;;
77287;SDS011;66345;42.694;23.346;2023-04-01T03:04:16;18.80;;;7.73;;
77287;SDS011;66345;42.694;23.346;2023-04-01T03:06:41;17.27;;;8.13;;
77287;SDS011;66345;42.694;23.346;2023-04-01T03:09:07;16.77;;;7.43;;
77287;SDS011;66345;42.694;23.346;2023-04-01T03:11:32;13.50;;;7.07;;
77287;SDS011;66345;42.694;23.346;2023-04-01T03:13:57;14.17;;;7.40;;
77287;SDS011;66345;42.694;23.346;2023-04-01T03:16:23;14.23;;;6.50;;
77287;SDS011;66345;42.694;23.346;2023-04-01T03:18:48;14.85;;;6.80;;
77287;SDS011;66345;42.694;23.346;2023-04-01T03:21:16;15.77;;;6.68;;
77287;SDS011;66345;42.694;23.346;2023-04-01T03:23:43;17.38;;;7.10;;
77287;SDS011;66345;42.694;23.346;2023-04-01T03:26:09;17.90;;;7.03;;
77287;SDS011;66345;42.694;23.346;2023-04-01T03:28:34;15.20;;;7.27;;
77287;SDS011;66345;42.694;23.346;2023-04-01T03:31:00;12.77;;;6.57;;
77287;SDS011;66345;42.694;23.346;2023-04-01T03:33:25;15.73;;;6.97;;
77287;SDS011;66345;42.694;23.346;2023-04-01T03:35:51;17.90;;;7.80;;
77287;SDS011;66345;42.694;23.346;2023-04-01T03:38:17;14.90;;;7.93;;
77287;SDS011;66345;42.694;23.346;2023-04-01T03:40:43;22.13;;;8.27;;
77287;SDS011;66345;42.694;23.346;2023-04-01T03:43:09;15.73;;;7.65;;
77287;SDS011;66345;42.694;23.346;2023-04-01T03:45:35;17.57;;;8.30;;
77287;SDS011;66345;42.694;23.346;2023-04-01T03:48:00;16.48;;;7.60;;
77287;SDS011;66345;42.694;23.346;2023-04-01T03:50:26;18.48;;;7.78;;
77287;SDS011;66345;42.694;23.346;2023-04-01T03:52:52;14.43;;;7.63;;
77287;SDS011;66345;42.694;23.346;2023-04-01T03:55:17;15.90;;;7.40;;
77287;SDS011;66345;42.694;23.346;2023-04-01T03:57:43;16.85;;;8.98;;
77287;SDS011;66345;42.694;23.346;2023-04-01T04:00:09;16.02;;;8.30;;
77287;SDS011;66345;42.694;23.346;2023-04-01T04:02:34;18.25;;;9.18;;
77287;SDS011;66345;42.694;23.346;2023-04-01T04:05:00;15.40;;;7.87;;
77287;SDS011;66345;42.694;23.346;2023-04-01T04:07:26;16.95;;;8.07;;
77287;SDS011;66345;42.694;23.346;2023-04-01T04:09:51;15.00;;;8.40;;
77287;SDS011;66345;42.694;23.346;2023-04-01T04:12:17;18.43;;;7.23;;
77287;SDS011;66345;42.694;23.346;2023-04-01T04:14:42;13.00;;;6.80;;
77287;SDS011;66345;42.694;23.346;2023-04-01T04:17:09;15.90;;;6.90;;
77287;SDS011;66345;42.694;23.346;2023-04-01T04:19:40;13.93;;;6.93;;
77287;SDS011;66345;42.694;23.346;2023-04-01T04:22:06;13.25;;;7.28;;
77287;SDS011;66345;42.694;23.346;2023-04-01T04:24:33;15.80;;;7.23;;
77287;SDS011;66345;42.694;23.346;2023-04-01T04:26:59;16.48;;;8.38;;
77287;SDS011;66345;42.694;23.346;2023-04-01T04:29:24;14.60;;;7.00;;
77287;SDS011;66345;42.694;23.346;2023-04-01T04:31:50;15.75;;;7.50;;
77287;SDS011;66345;42.694;23.346;2023-04-01T04:34:16;16.00;;;7.28;;
77287;SDS011;66345;42.694;23.346;2023-04-01T04:36:41;17.60;;;8.13;;
77287;SDS011;66345;42.694;23.346;2023-04-01T04:39:06;18.08;;;7.35;;
77287;SDS011;66345;42.694;23.346;2023-04-01T04:41:32;16.45;;;7.88;;
77287;SDS011;66345;42.694;23.346;2023-04-01T04:43:57;14.97;;;7.73;;
77287;SDS011;66345;42.694;23.346;2023-04-01T04:46:23;11.98;;;6.70;;
77287;SDS011;66345;42.694;23.346;2023-04-01T04:48:49;13.20;;;7.05;;
77287;SDS011;66345;42.694;23.346;2023-04-01T04:51:16;12.93;;;6.30;;
77287;SDS011;66345;42.694;23.346;2023-04-01T04:53:43;17.93;;;6.03;;
77287;SDS011;66345;42.694;23.346;2023-04-01T04:56:09;13.18;;;5.40;;
77287;SDS011;66345;42.694;23.346;2023-04-01T04:58:35;13.27;;;6.30;;
77287;SDS011;66345;42.694;23.346;2023-04-01T05:01:08;10.33;;;4.93;;
77287;SDS011;66345;42.694;23.346;2023-04-01T05:03:35;13.50;;;5.82;;
77287;SDS011;66345;42.694;23.346;2023-04-01T05:06:02;14.20;;;5.30;;
77287;SDS011;66345;42.694;23.346;2023-04-01T05:08:28;13.60;;;5.38;;
77287;SDS011;66345;42.694;23.346;2023-04-01T05:10:53;13.83;;;5.83;;
77287;SDS011;66345;42.694;23.346;2023-04-01T05:13:19;17.85;;;5.80;;
77287;SDS011;66345;42.694;23.346;2023-04-01T05:15:45;12.07;;;6.00;;
77287;SDS011;66345;42.694;23.346;2023-04-01T05:18:10;11.45;;;5.28;;
77287;SDS011;66345;42.694;23.346;2023-04-01T05:20:36;11.13;;;5.20;;
77287;SDS011;66345;42.694;23.346;2023-04-01T05:23:01;15.30;;;5.60;;
77287;SDS011;66345;42.694;23.346;2023-04-01T05:25:28;14.18;;;5.65;;
77287;SDS011;66345;42.694;23.346;2023-04-01T05:27:53;12.23;;;5.70;;
77287;SDS011;66345;42.694;23.346;2023-04-01T05:30:18;14.67;;;5.20;;
77287;SDS011;66345;42.694;23.346;2023-04-01T05:32:44;10.45;;;5.47;;
77287;SDS011;66345;42.694;23.346;2023-04-01T05:35:10;12.13;;;5.60;;
77287;SDS011;66345;42.694;23.346;2023-04-01T05:37:36;13.13;;;4.95;;
77287;SDS011;66345;42.694;23.346;2023-04-01T05:40:02;12.18;;;5.47;;
77287;SDS011;66345;42.694;23.346;2023-04-01T05:42:28;11.20;;;5.63;;
77287;SDS011;66345;42.694;23.346;2023-04-01T05:44:54;10.77;;;5.03;;
77287;SDS011;66345;42.694;23.346;2023-04-01T05:47:20;15.15;;;5.50;;
77287;SDS011;66345;42.694;23.346;2023-04-01T05:49:46;13.13;;;5.10;;
77287;SDS011;66345;42.694;23.346;2023-04-01T05:52:12;9.67;;;4.50;;
77287;SDS011;66345;42.694;23.346;2023-04-01T05:54:37;13.80;;;4.83;;
77287;SDS011;66345;42.694;23.346;2023-04-01T05:57:02;13.02;;;5.90;;
77287;SDS011;66345;42.694;23.346;2023-04-01T05:59:28;9.82;;;4.60;;
77287;SDS011;66345;42.694;23.346;2023-04-01T06:01:53;13.20;;;4.87;;
77287;SDS011;66345;42.694;23.346;2023-04-01T06:04:19;8.73;;;4.40;;
77287;SDS011;66345;42.694;23.346;2023-04-01T06:06:45;10.65;;;4.50;;
77287;SDS011;66345;42.694;23.346;2023-04-01T06:09:18;11.43;;;4.37;;
77287;SDS011;66345;42.694;23.346;2023-04-01T06:34:20;11.83;;;4.13;;
77287;SDS011;66345;42.694;23.346;2023-04-01T06:56:34;11.23;;;4.40;;
77287;SDS011;66345;42.694;23.346;2023-04-01T06:59:08;10.23;;;3.92;;
77287;SDS011;66345;42.694;23.346;2023-04-01T07:01:41;12.83;;;4.53;;
77287;SDS011;66345;42.694;23.346;2023-04-01T07:04:15;12.68;;;4.47;;
77287;SDS011;66345;42.694;23.346;2023-04-01T07:06:47;10.02;;;4.05;;
77287;SDS011;66345;42.694;23.346;2023-04-01T07:09:34;19.35;;;4.10;;
77287;SDS011;66345;42.694;23.346;2023-04-01T07:12:06;13.40;;;4.50;;
77287;SDS011;66345;42.694;23.346;2023-04-01T07:14:39;11.63;;;3.90;;
77287;SDS011;66345;42.694;23.346;2023-04-01T07:17:23;24.88;;;5.22;;
77287;SDS011;66345;42.694;23.346;2023-04-01T07:19:53;10.95;;;4.15;;
77287;SDS011;66345;42.694;23.346;2023-04-01T07:22:28;11.23;;;4.28;;
77287;SDS011;66345;42.694;23.346;2023-04-01T07:25:01;10.38;;;3.88;;
77287;SDS011;66345;42.694;23.346;2023-04-01T07:27:36;9.33;;;4.60;;
77287;SDS011;66345;42.694;23.346;2023-04-01T07:30:01;14.02;;;4.88;;
77287;SDS011;66345;42.694;23.346;2023-04-01T07:35:09;9.90;;;4.00;;
77287;SDS011;66345;42.694;23.346;2023-04-01T07:46:16;17.48;;;4.50;;
77287;SDS011;66345;42.694;23.346;2023-04-01T07:51:28;6.70;;;3.25;;
77287;SDS011;66345;42.694;23.346;2023-04-01T07:54:19;10.20;;;3.80;;
77287;SDS011;66345;42.694;23.346;2023-04-01T07:57:34;10.82;;;3.17;;
77287;SDS011;66345;42.694;23.346;2023-04-01T08:00:04;9.50;;;4.30;;
77287;SDS011;66345;42.694;23.346;2023-04-01T08:07:51;9.70;;;3.20;;
77287;SDS011;66345;42.694;23.346;2023-04-01T08:10:48;11.60;;;4.45;;
77287;SDS011;66345;42.694;23.346;2023-04-01T08:18:51;7.35;;;2.70;;
77287;SDS011;66345;42.694;23.346;2023-04-01T08:21:27;8.93;;;3.40;;
77287;SDS011;66345;42.694;23.346;2023-04-01T08:23:56;7.15;;;3.35;;
77287;SDS011;66345;42.694;23.346;2023-04-01T08:34:17;13.50;;;4.73;;
77287;SDS011;66345;42.694;23.346;2023-04-01T08:36:51;12.52;;;5.68;;
77287;SDS011;66345;42.694;23.346;2023-04-01T08:39:27;12.25;;;4.63;;
77287;SDS011;66345;42.694;23.346;2023-04-01T08:44:34;12.30;;;4.07;;
77287;SDS011;66345;42.694;23.346;2023-04-01T08:58:07;6.82;;;2.90;;
77287;SDS011;66345;42.694;23.346;2023-04-01T09:06:21;7.93;;;2.67;;
77287;SDS011;66345;42.694;23.346;2023-04-01T09:14:23;7.15;;;2.45;;
77287;SDS011;66345;42.694;23.346;2023-04-01T09:38:18;9.68;;;2.40;;
77287;SDS011;66345;42.694;23.346;2023-04-01T09:40:57;8.60;;;2.50;;
77287;SDS011;66345;42.694;23.346;2023-04-01T09:43:39;6.18;;;2.22;;
77287;SDS011;66345;42.694;23.346;2023-04-01T09:46:14;5.10;;;2.20;;
77287;SDS011;66345;42.694;23.346;2023-04-01T09:54:17;11.82;;;3.05;;
77287;SDS011;66345;42.694;23.346;2023-04-01T10:18:40;5.53;;;2.75;;
77287;SDS011;66345;42.694;23.346;2023-04-01T10:40:53;6.88;;;3.30;;
77287;SDS011;66345;42.694;23.346;2023-04-01T11:06:21;8.82;;;3.60;;
77287;SDS011;66345;42.694;23.346;2023-04-01T11:20:49;10.45;;;3.70;;
77287;SDS011;66345;42.694;23.346;2023-04-01T11:23:42;11.93;;;4.20;;
77287;SDS011;66345;42.694;23.346;2023-04-01T11:26:21;11.77;;;3.70;;
77287;SDS011;66345;42.694;23.346;2023-04-01T11:31:34;9.95;;;4.10;;
77287;SDS011;66345;42.694;23.346;2023-04-01T11:34:11;11.48;;;5.00;;
77287;SDS011;66345;42.694;23.346;2023-04-01T11:39:39;5.67;;;1.20;;
77287;SDS011;66345;42.694;23.346;2023-04-01T11:52:58;6.40;;;1.50;;
77287;SDS011;66345;42.694;23.346;2023-04-01T11:55:50;7.40;;;2.05;;
77287;SDS011;66345;42.694;23.346;2023-04-01T12:01:21;4.65;;;2.10;;
77287;SDS011;66345;42.694;23.346;2023-04-01T12:12:17;10.38;;;3.60;;
77287;SDS011;66345;42.694;23.346;2023-04-01T12:17:50;9.60;;;3.30;;
77287;SDS011;66345;42.694;23.346;2023-04-01T12:32:05;9.02;;;3.13;;
77287;SDS011;66345;42.694;23.346;2023-04-01T12:40:31;7.07;;;2.25;;
77287;SDS011;66345;42.694;23.346;2023-04-01T12:48:56;6.77;;;2.70;;
77287;SDS011;66345;42.694;23.346;2023-04-01T12:57:25;9.57;;;2.92;;
77287;SDS011;66345;42.694;23.346;2023-04-01T13:13:19;8.30;;;2.90;;
77287;SDS011;66345;42.694;23.346;2023-04-01T13:27:01;7.90;;;3.30;;
77287;SDS011;66345;42.694;23.346;2023-04-01T13:35:15;7.00;;;2.97;;
77287;SDS011;66345;42.694;23.346;2023-04-01T13:40:21;8.75;;;3.90;;
77287;SDS011;66345;42.694;23.346;2023-04-01T13:43:02;10.60;;;4.60;;
77287;SDS011;66345;42.694;23.346;2023-04-01T13:48:19;7.30;;;3.63;;
77287;SDS011;66345;42.694;23.346;2023-04-01T14:00:40;7.70;;;2.60;;
77287;SDS011;66345;42.694;23.346;2023-04-01T14:08:17;7.15;;;2.72;;
77287;SDS011;66345;42.694;23.346;2023-04-01T14:13:52;8.18;;;2.75;;
77287;SDS011;66345;42.694;23.346;2023-04-01T14:35:31;6.88;;;2.20;;
77287;SDS011;66345;42.694;23.346;2023-04-01T14:38:14;6.00;;;1.93;;
77287;SDS011;66345;42.694;23.346;2023-04-01T14:46:50;4.57;;;2.20;;
77287;SDS011;66345;42.694;23.346;2023-04-01T14:48:50;8.35;;;2.40;;
77287;SDS011;66345;42.694;23.346;2023-04-01T14:51:34;5.63;;;2.17;;
77287;SDS011;66345;42.694;23.346;2023-04-01T14:54:06;9.32;;;3.20;;
77287;SDS011;66345;42.694;23.346;2023-04-01T14:59:09;9.48;;;3.42;;
77287;SDS011;66345;42.694;23.346;2023-04-01T15:01:58;6.85;;;3.20;;
77287;SDS011;66345;42.694;23.346;2023-04-01T15:13:14;6.60;;;2.20;;
77287;SDS011;66345;42.694;23.346;2023-04-01T15:21:11;7.00;;;2.58;;
77287;SDS011;66345;42.694;23.346;2023-04-01T15:27:21;7.18;;;2.20;;
77287;SDS011;66345;42.694;23.346;2023-04-01T15:48:31;17.23;;;4.82;;
77287;SDS011;66345;42.694;23.346;2023-04-01T15:51:11;12.67;;;4.10;;
77287;SDS011;66345;42.694;23.346;2023-04-01T16:02:18;3.97;;;1.75;;
77287;SDS011;66345;42.694;23.346;2023-04-01T16:16:04;5.50;;;2.38;;
77287;SDS011;66345;42.694;23.346;2023-04-01T16:21:35;9.02;;;2.78;;
77287;SDS011;66345;42.694;23.346;2023-04-01T16:26:48;6.00;;;2.65;;
77287;SDS011;66345;42.694;23.346;2023-04-01T16:29:40;6.40;;;2.75;;
77287;SDS011;66345;42.694;23.346;2023-04-01T16:34:55;7.00;;;2.97;;
77287;SDS011;66345;42.694;23.346;2023-04-01T16:37:45;5.93;;;1.83;;
77287;SDS011;66345;42.694;23.346;2023-04-01T16:45:19;4.33;;;1.93;;
77287;SDS011;66345;42.694;23.346;2023-04-01T16:48:10;7.15;;;2.08;;
77287;SDS011;66345;42.694;23.346;2023-04-01T16:50:56;5.90;;;1.80;;
77287;SDS011;66345;42.694;23.346;2023-04-01T16:53:30;6.07;;;2.17;;
77287;SDS011;66345;42.694;23.346;2023-04-01T16:56:16;4.95;;;1.35;;
77287;SDS011;66345;42.694;23.346;2023-04-01T16:58:57;5.00;;;2.10;;
77287;SDS011;66345;42.694;23.346;2023-04-01T17:01:32;4.50;;;2.17;;
77287;SDS011;66345;42.694;23.346;2023-04-01T17:07:06;5.20;;;2.08;;
77287;SDS011;66345;42.694;23.346;2023-04-01T17:23:36;4.10;;;1.17;;
77287;SDS011;66345;42.694;23.346;2023-04-01T17:26:20;3.23;;;1.40;;
77287;SDS011;66345;42.694;23.346;2023-04-01T17:28:56;4.10;;;1.63;;
77287;SDS011;66345;42.694;23.346;2023-04-01T17:33:59;3.43;;;1.20;;
77287;SDS011;66345;42.694;23.346;2023-04-01T17:42:16;4.67;;;1.87;;
77287;SDS011;66345;42.694;23.346;2023-04-01T17:56:02;4.80;;;1.30;;
77287;SDS011;66345;42.694;23.346;2023-04-01T17:58:33;4.85;;;2.30;;
77287;SDS011;66345;42.694;23.346;2023-04-01T18:04:03;4.78;;;2.63;;
77287;SDS011;66345;42.694;23.346;2023-04-01T18:11:57;4.13;;;2.50;;
77287;SDS011;66345;42.694;23.346;2023-04-01T18:22:57;4.37;;;2.23;;
77287;SDS011;66345;42.694;23.346;2023-04-01T18:25:34;3.20;;;1.48;;
77287;SDS011;66345;42.694;23.346;2023-04-01T18:31:38;5.30;;;2.47;;
77287;SDS011;66345;42.694;23.346;2023-04-01T18:33:59;4.40;;;2.40;;
77287;SDS011;66345;42.694;23.346;2023-04-01T18:36:52;3.93;;;1.90;;
77287;SDS011;66345;42.694;23.346;2023-04-01T18:53:22;4.53;;;2.53;;
77287;SDS011;66345;42.694;23.346;2023-04-01T18:55:53;4.50;;;2.10;;
77287;SDS011;66345;42.694;23.346;2023-04-01T18:58:33;5.10;;;2.47;;
77287;SDS011;66345;42.694;23.346;2023-04-01T19:01:17;4.97;;;2.53;;
77287;SDS011;66345;42.694;23.346;2023-04-01T19:06:52;4.47;;;1.50;;
77287;SDS011;66345;42.694;23.346;2023-04-01T19:09:30;4.18;;;2.08;;
77287;SDS011;66345;42.694;23.346;2023-04-01T19:15:19;4.00;;;1.95;;
77287;SDS011;66345;42.694;23.346;2023-04-01T19:18:02;4.53;;;2.50;;
77287;SDS011;66345;42.694;23.346;2023-04-01T19:23:53;4.65;;;2.22;;
77287;SDS011;66345;42.694;23.346;2023-04-01T19:26:29;3.47;;;1.40;;
77287;SDS011;66345;42.694;23.346;2023-04-01T19:31:49;3.72;;;1.88;;
77287;SDS011;66345;42.694;23.346;2023-04-01T20:03:01;4.07;;;2.05;;
77287;SDS011;66345;42.694;23.346;2023-04-01T20:11:21;4.82;;;1.95;;
77287;SDS011;66345;42.694;23.346;2023-04-01T20:14:15;6.00;;;1.90;;
77287;SDS011;66345;42.694;23.346;2023-04-01T20:17:07;4.40;;;2.10;;
77287;SDS011;66345;42.694;23.346;2023-04-01T20:20:19;4.15;;;2.05;;
77287;SDS011;66345;42.694;23.346;2023-04-01T20:36:05;5.15;;;2.28;;
77287;SDS011;66345;42.694;23.346;2023-04-01T20:52:49;4.95;;;1.20;;
77287;SDS011;66345;42.694;23.346;2023-04-01T21:01:06;3.30;;;1.30;;
77287;SDS011;66345;42.694;23.346;2023-04-01T21:06:31;3.05;;;1.10;;
77287;SDS011;66345;42.694;23.346;2023-04-01T21:31:37;2.67;;;0.80;;
77287;SDS011;66345;42.694;23.346;2023-04-01T21:34:14;3.08;;;1.35;;
77287;SDS011;66345;42.694;23.346;2023-04-01T21:37:00;4.65;;;1.00;;
77287;SDS011;66345;42.694;23.346;2023-04-01T21:39:52;3.83;;;1.13;;
77287;SDS011;66345;42.694;23.346;2023-04-01T21:48:44;2.85;;;0.95;;
77287;SDS011;66345;42.694;23.346;2023-04-01T22:02:47;5.63;;;1.00;;
77287;SDS011;66345;42.694;23.346;2023-04-01T22:05:42;2.83;;;0.88;;
77287;SDS011;66345;42.694;23.346;2023-04-01T22:25:06;3.60;;;1.10;;
77287;SDS011;66345;42.694;23.346;2023-04-01T22:32:47;3.03;;;1.08;;
77287;SDS011;66345;42.694;23.346;2023-04-01T22:43:40;3.80;;;1.23;;
77287;SDS011;66345;42.694;23.346;2023-04-01T22:48:51;3.63;;;1.10;;
77287;SDS011;66345;42.694;23.346;2023-04-01T22:56:46;3.20;;;1.00;;
77287;SDS011;66345;42.694;23.346;2023-04-01T22:59:35;3.38;;;1.15;;
77287;SDS011;66345;42.694;23.346;2023-04-01T23:04:42;3.00;;;1.10;;
77287;SDS011;66345;42.694;23.346;2023-04-01T23:12:58;4.45;;;0.80;;
77287;SDS011;66345;42.694;23.346;2023-04-01T23:15:26;3.75;;;1.20;;
77287;SDS011;66345;42.694;23.346;2023-04-01T23:23:17;3.53;;;0.82;;
77287;SDS011;66345;42.694;23.346;2023-04-01T23:26:05;2.92;;;0.73;;
77287;SDS011;66345;42.694;23.346;2023-04-01T23:36:42;2.60;;;0.63;;
77287;SDS011;66345;42.694;23.346;2023-04-01T23:39:20;2.42;;;0.60;;
77287;SDS011;66345;42.694;23.346;2023-04-01T23:41:46;2.60;;;0.80;;
77287;SDS011;66345;42.694;23.346;2023-04-01T23:44:12;2.90;;;0.73;;
77287;SDS011;66345;42.694;23.346;2023-04-01T23:46:40;2.65;;;0.70;;
77287;SDS011;66345;42.694;23.346;2023-04-01T23:49:13;3.78;;;1.05;;
77287;SDS011;66345;42.694;23.346;2023-04-01T23:52:10;4.20;;;0.70;;
77287;SDS011;66345;42.694;23.346;2023-04-01T23:57:31;3.67;;;0.70;;
